sensor_id;sensor_type;location;lat;lon;timestamp;P1;durP1;ratioP1;P2;durP2;ratioP2
76125;SDS011;65174;48.138;21.002;2023-08-31T00:01:25;9.38;;;5.60;;
76125;SDS011;65174;48.138;21.002;2023-08-31T00:04:27;6.20;;;4.93;;
76125;SDS011;65174;48.138;21.002;2023-08-31T00:07:29;8.80;;;6.53;;
76125;SDS011;65174;48.138;21.002;2023-08-31T00:10:31;8.65;;;5.63;;
76125;SDS011;65174;48.138;21.002;2023-08-31T00:13:33;8.63;;;5.68;;
76125;SDS011;65174;48.138;21.002;2023-08-31T00:16:35;7.90;;;5.55;;
76125;SDS011;65174;48.138;21.002;2023-08-31T00:19:38;8.80;;;5.90;;
76125;SDS011;65174;48.138;21.002;2023-08-31T00:22:40;9.13;;;5.80;;
76125;SDS011;65174;48.138;21.002;2023-08-31T00:25:42;9.88;;;6.35;;
76125;SDS011;65174;48.138;21.002;2023-08-31T00:28:45;9.38;;;6.90;;
76125;SDS011;65174;48.138;21.002;2023-08-31T00:31:46;9.88;;;6.40;;
76125;SDS011;65174;48.138;21.002;2023-08-31T00:34:50;9.97;;;6.00;;
76125;SDS011;65174;48.138;21.002;2023-08-31T00:37:52;8.18;;;5.85;;
76125;SDS011;65174;48.138;21.002;2023-08-31T00:40:59;9.07;;;6.45;;
76125;SDS011;65174;48.138;21.002;2023-08-31T00:44:01;10.93;;;6.13;;
76125;SDS011;65174;48.138;21.002;2023-08-31T00:47:05;9.80;;;6.40;;
76125;SDS011;65174;48.138;21.002;2023-08-31T00:50:08;11.23;;;7.33;;
76125;SDS011;65174;48.138;21.002;2023-08-31T01:14:10;9.50;;;5.47;;
76125;SDS011;65174;48.138;21.002;2023-08-31T01:17:15;8.73;;;5.40;;
76125;SDS011;65174;48.138;21.002;2023-08-31T01:20:19;7.18;;;5.75;;
76125;SDS011;65174;48.138;21.002;2023-08-31T01:23:50;11.80;;;6.20;;
76125;SDS011;65174;48.138;21.002;2023-08-31T01:31:03;12.80;;;6.30;;
76125;SDS011;65174;48.138;21.002;2023-08-31T01:34:07;8.25;;;6.20;;
76125;SDS011;65174;48.138;21.002;2023-08-31T01:37:11;11.57;;;6.32;;
76125;SDS011;65174;48.138;21.002;2023-08-31T01:43:37;8.50;;;5.53;;
76125;SDS011;65174;48.138;21.002;2023-08-31T01:46:45;7.87;;;5.00;;
76125;SDS011;65174;48.138;21.002;2023-08-31T01:49:47;15.35;;;5.28;;
76125;SDS011;65174;48.138;21.002;2023-08-31T01:52:51;9.07;;;5.18;;
76125;SDS011;65174;48.138;21.002;2023-08-31T01:55:55;8.93;;;5.28;;
76125;SDS011;65174;48.138;21.002;2023-08-31T01:58:56;12.25;;;5.68;;
76125;SDS011;65174;48.138;21.002;2023-08-31T02:01:58;20.27;;;6.30;;
76125;SDS011;65174;48.138;21.002;2023-08-31T02:05:02;16.90;;;6.07;;
76125;SDS011;65174;48.138;21.002;2023-08-31T02:08:05;12.88;;;6.28;;
76125;SDS011;65174;48.138;21.002;2023-08-31T02:11:07;17.42;;;5.28;;
76125;SDS011;65174;48.138;21.002;2023-08-31T02:14:09;14.38;;;5.35;;
76125;SDS011;65174;48.138;21.002;2023-08-31T02:17:11;20.30;;;5.87;;
76125;SDS011;65174;48.138;21.002;2023-08-31T02:20:13;21.45;;;5.70;;
76125;SDS011;65174;48.138;21.002;2023-08-31T02:23:15;16.00;;;6.40;;
76125;SDS011;65174;48.138;21.002;2023-08-31T02:26:17;7.97;;;5.50;;
76125;SDS011;65174;48.138;21.002;2023-08-31T02:29:20;18.50;;;6.15;;
76125;SDS011;65174;48.138;21.002;2023-08-31T02:32:22;11.40;;;6.30;;
76125;SDS011;65174;48.138;21.002;2023-08-31T02:35:24;17.52;;;6.18;;
76125;SDS011;65174;48.138;21.002;2023-08-31T02:38:26;16.20;;;5.57;;
76125;SDS011;65174;48.138;21.002;2023-08-31T02:41:28;13.65;;;6.13;;
76125;SDS011;65174;48.138;21.002;2023-08-31T02:44:31;12.13;;;5.55;;
76125;SDS011;65174;48.138;21.002;2023-08-31T02:47:33;13.93;;;5.53;;
76125;SDS011;65174;48.138;21.002;2023-08-31T02:50:35;17.15;;;6.25;;
76125;SDS011;65174;48.138;21.002;2023-08-31T02:53:37;11.38;;;6.78;;
76125;SDS011;65174;48.138;21.002;2023-08-31T02:56:39;12.82;;;6.45;;
76125;SDS011;65174;48.138;21.002;2023-08-31T02:59:41;14.05;;;6.88;;
76125;SDS011;65174;48.138;21.002;2023-08-31T03:02:44;15.50;;;6.70;;
76125;SDS011;65174;48.138;21.002;2023-08-31T03:05:46;11.63;;;6.30;;
76125;SDS011;65174;48.138;21.002;2023-08-31T03:08:48;20.60;;;7.00;;
76125;SDS011;65174;48.138;21.002;2023-08-31T03:15:54;16.00;;;7.25;;
76125;SDS011;65174;48.138;21.002;2023-08-31T03:18:58;16.13;;;6.67;;
76125;SDS011;65174;48.138;21.002;2023-08-31T03:22:00;15.55;;;7.35;;
76125;SDS011;65174;48.138;21.002;2023-08-31T03:25:02;13.77;;;7.40;;
76125;SDS011;65174;48.138;21.002;2023-08-31T03:28:04;12.35;;;7.07;;
76125;SDS011;65174;48.138;21.002;2023-08-31T03:31:06;14.45;;;7.07;;
76125;SDS011;65174;48.138;21.002;2023-08-31T03:34:09;16.07;;;6.53;;
76125;SDS011;65174;48.138;21.002;2023-08-31T03:37:11;13.15;;;6.82;;
76125;SDS011;65174;48.138;21.002;2023-08-31T03:40:13;11.23;;;7.32;;
76125;SDS011;65174;48.138;21.002;2023-08-31T03:43:15;12.02;;;7.82;;
76125;SDS011;65174;48.138;21.002;2023-08-31T03:46:17;11.27;;;7.10;;
76125;SDS011;65174;48.138;21.002;2023-08-31T03:49:31;11.03;;;7.07;;
76125;SDS011;65174;48.138;21.002;2023-08-31T03:52:36;11.27;;;6.85;;
76125;SDS011;65174;48.138;21.002;2023-08-31T03:55:38;14.48;;;7.60;;
76125;SDS011;65174;48.138;21.002;2023-08-31T03:58:40;13.30;;;7.13;;
76125;SDS011;65174;48.138;21.002;2023-08-31T04:01:42;11.85;;;7.25;;
76125;SDS011;65174;48.138;21.002;2023-08-31T04:04:45;13.27;;;7.37;;
76125;SDS011;65174;48.138;21.002;2023-08-31T04:07:48;12.85;;;6.78;;
76125;SDS011;65174;48.138;21.002;2023-08-31T04:10:50;11.85;;;7.20;;
76125;SDS011;65174;48.138;21.002;2023-08-31T04:13:52;10.55;;;6.63;;
76125;SDS011;65174;48.138;21.002;2023-08-31T04:16:55;12.50;;;6.88;;
76125;SDS011;65174;48.138;21.002;2023-08-31T04:19:57;16.00;;;7.43;;
76125;SDS011;65174;48.138;21.002;2023-08-31T04:22:59;13.38;;;6.97;;
76125;SDS011;65174;48.138;21.002;2023-08-31T04:26:03;12.43;;;7.53;;
76125;SDS011;65174;48.138;21.002;2023-08-31T04:29:11;11.63;;;6.65;;
76125;SDS011;65174;48.138;21.002;2023-08-31T04:32:13;11.63;;;6.60;;
76125;SDS011;65174;48.138;21.002;2023-08-31T04:35:15;11.67;;;6.93;;
76125;SDS011;65174;48.138;21.002;2023-08-31T04:38:17;9.63;;;6.43;;
76125;SDS011;65174;48.138;21.002;2023-08-31T04:41:19;12.25;;;6.93;;
76125;SDS011;65174;48.138;21.002;2023-08-31T04:44:21;14.73;;;7.53;;
76125;SDS011;65174;48.138;21.002;2023-08-31T04:47:24;14.68;;;7.57;;
76125;SDS011;65174;48.138;21.002;2023-08-31T04:54:34;12.93;;;7.07;;
76125;SDS011;65174;48.138;21.002;2023-08-31T04:57:36;10.55;;;6.40;;
76125;SDS011;65174;48.138;21.002;2023-08-31T05:00:38;13.52;;;7.38;;
76125;SDS011;65174;48.138;21.002;2023-08-31T05:03:41;9.10;;;6.40;;
76125;SDS011;65174;48.138;21.002;2023-08-31T05:06:43;11.87;;;6.67;;
76125;SDS011;65174;48.138;21.002;2023-08-31T05:09:45;12.40;;;6.63;;
76125;SDS011;65174;48.138;21.002;2023-08-31T05:12:47;12.95;;;8.65;;
76125;SDS011;65174;48.138;21.002;2023-08-31T05:15:49;14.13;;;7.75;;
76125;SDS011;65174;48.138;21.002;2023-08-31T05:18:51;15.07;;;7.70;;
76125;SDS011;65174;48.138;21.002;2023-08-31T05:21:53;15.00;;;7.97;;
76125;SDS011;65174;48.138;21.002;2023-08-31T05:24:55;15.02;;;8.13;;
76125;SDS011;65174;48.138;21.002;2023-08-31T05:27:57;19.10;;;9.15;;
76125;SDS011;65174;48.138;21.002;2023-08-31T05:31:00;18.67;;;8.40;;
76125;SDS011;65174;48.138;21.002;2023-08-31T05:34:04;16.48;;;8.75;;
76125;SDS011;65174;48.138;21.002;2023-08-31T05:37:06;17.53;;;9.47;;
76125;SDS011;65174;48.138;21.002;2023-08-31T05:40:08;15.35;;;8.40;;
76125;SDS011;65174;48.138;21.002;2023-08-31T05:43:12;18.67;;;8.20;;
76125;SDS011;65174;48.138;21.002;2023-08-31T05:46:15;16.63;;;9.43;;
76125;SDS011;65174;48.138;21.002;2023-08-31T05:49:17;14.30;;;8.27;;
76125;SDS011;65174;48.138;21.002;2023-08-31T05:52:19;17.60;;;8.67;;
76125;SDS011;65174;48.138;21.002;2023-08-31T05:55:21;16.52;;;8.40;;
76125;SDS011;65174;48.138;21.002;2023-08-31T05:58:23;17.00;;;9.27;;
76125;SDS011;65174;48.138;21.002;2023-08-31T06:01:25;16.50;;;9.27;;
76125;SDS011;65174;48.138;21.002;2023-08-31T06:04:27;17.23;;;9.57;;
76125;SDS011;65174;48.138;21.002;2023-08-31T06:07:29;17.63;;;9.97;;
76125;SDS011;65174;48.138;21.002;2023-08-31T06:10:31;14.75;;;8.27;;
76125;SDS011;65174;48.138;21.002;2023-08-31T06:13:33;16.52;;;9.55;;
76125;SDS011;65174;48.138;21.002;2023-08-31T06:16:35;14.40;;;8.88;;
76125;SDS011;65174;48.138;21.002;2023-08-31T06:23:16;15.00;;;9.00;;
76125;SDS011;65174;48.138;21.002;2023-08-31T06:26:18;15.93;;;8.40;;
76125;SDS011;65174;48.138;21.002;2023-08-31T06:29:20;18.02;;;9.13;;
76125;SDS011;65174;48.138;21.002;2023-08-31T06:32:22;16.10;;;9.00;;
76125;SDS011;65174;48.138;21.002;2023-08-31T06:35:24;15.50;;;9.23;;
76125;SDS011;65174;48.138;21.002;2023-08-31T06:38:26;13.37;;;8.60;;
76125;SDS011;65174;48.138;21.002;2023-08-31T06:41:28;14.68;;;8.50;;
76125;SDS011;65174;48.138;21.002;2023-08-31T06:44:30;12.82;;;8.35;;
76125;SDS011;65174;48.138;21.002;2023-08-31T06:47:32;13.90;;;8.35;;
76125;SDS011;65174;48.138;21.002;2023-08-31T06:50:35;12.35;;;8.05;;
76125;SDS011;65174;48.138;21.002;2023-08-31T06:53:37;14.40;;;8.60;;
76125;SDS011;65174;48.138;21.002;2023-08-31T06:56:40;13.07;;;8.05;;
76125;SDS011;65174;48.138;21.002;2023-08-31T06:59:42;13.23;;;8.35;;
76125;SDS011;65174;48.138;21.002;2023-08-31T07:02:46;15.27;;;8.25;;
76125;SDS011;65174;48.138;21.002;2023-08-31T07:05:48;14.48;;;7.78;;
76125;SDS011;65174;48.138;21.002;2023-08-31T07:08:50;12.27;;;7.97;;
76125;SDS011;65174;48.138;21.002;2023-08-31T07:11:52;17.02;;;8.30;;
76125;SDS011;65174;48.138;21.002;2023-08-31T07:14:54;13.40;;;8.27;;
76125;SDS011;65174;48.138;21.002;2023-08-31T07:17:57;10.77;;;7.53;;
76125;SDS011;65174;48.138;21.002;2023-08-31T07:20:59;12.88;;;8.30;;
76125;SDS011;65174;48.138;21.002;2023-08-31T07:24:01;13.93;;;8.33;;
76125;SDS011;65174;48.138;21.002;2023-08-31T07:27:03;13.02;;;7.95;;
76125;SDS011;65174;48.138;21.002;2023-08-31T07:30:05;13.30;;;7.78;;
76125;SDS011;65174;48.138;21.002;2023-08-31T07:33:08;13.70;;;8.15;;
76125;SDS011;65174;48.138;21.002;2023-08-31T07:36:29;14.90;;;8.75;;
76125;SDS011;65174;48.138;21.002;2023-08-31T07:39:32;13.63;;;8.47;;
76125;SDS011;65174;48.138;21.002;2023-08-31T07:42:34;18.75;;;8.98;;
76125;SDS011;65174;48.138;21.002;2023-08-31T07:45:36;13.40;;;8.25;;
76125;SDS011;65174;48.138;21.002;2023-08-31T07:48:38;15.52;;;9.15;;
76125;SDS011;65174;48.138;21.002;2023-08-31T07:51:40;14.93;;;9.05;;
76125;SDS011;65174;48.138;21.002;2023-08-31T07:54:42;14.83;;;8.80;;
76125;SDS011;65174;48.138;21.002;2023-08-31T07:57:44;11.80;;;7.82;;
76125;SDS011;65174;48.138;21.002;2023-08-31T08:00:46;16.23;;;9.90;;
76125;SDS011;65174;48.138;21.002;2023-08-31T08:03:48;12.85;;;8.48;;
76125;SDS011;65174;48.138;21.002;2023-08-31T08:06:51;15.50;;;9.48;;
76125;SDS011;65174;48.138;21.002;2023-08-31T08:09:53;12.83;;;8.23;;
76125;SDS011;65174;48.138;21.002;2023-08-31T08:12:55;15.02;;;8.57;;
76125;SDS011;65174;48.138;21.002;2023-08-31T08:15:57;11.93;;;7.95;;
76125;SDS011;65174;48.138;21.002;2023-08-31T08:18:59;11.25;;;7.70;;
76125;SDS011;65174;48.138;21.002;2023-08-31T08:22:01;13.60;;;8.23;;
76125;SDS011;65174;48.138;21.002;2023-08-31T08:25:03;16.80;;;8.77;;
76125;SDS011;65174;48.138;21.002;2023-08-31T08:28:06;12.77;;;8.50;;
76125;SDS011;65174;48.138;21.002;2023-08-31T08:31:08;16.63;;;8.57;;
76125;SDS011;65174;48.138;21.002;2023-08-31T08:34:10;10.73;;;7.82;;
76125;SDS011;65174;48.138;21.002;2023-08-31T08:37:12;12.52;;;8.15;;
76125;SDS011;65174;48.138;21.002;2023-08-31T08:40:14;12.70;;;8.77;;
76125;SDS011;65174;48.138;21.002;2023-08-31T08:47:14;12.90;;;8.63;;
76125;SDS011;65174;48.138;21.002;2023-08-31T08:50:18;12.43;;;8.68;;
76125;SDS011;65174;48.138;21.002;2023-08-31T08:53:21;14.90;;;10.48;;
76125;SDS011;65174;48.138;21.002;2023-08-31T08:56:24;15.23;;;8.77;;
76125;SDS011;65174;48.138;21.002;2023-08-31T08:59:25;13.20;;;9.48;;
76125;SDS011;65174;48.138;21.002;2023-08-31T09:02:29;17.83;;;10.85;;
76125;SDS011;65174;48.138;21.002;2023-08-31T09:05:34;19.23;;;11.57;;
76125;SDS011;65174;48.138;21.002;2023-08-31T09:08:36;18.73;;;12.20;;
76125;SDS011;65174;48.138;21.002;2023-08-31T09:11:38;32.60;;;12.40;;
76125;SDS011;65174;48.138;21.002;2023-08-31T09:14:41;21.77;;;14.10;;
76125;SDS011;65174;48.138;21.002;2023-08-31T09:17:43;23.73;;;14.25;;
76125;SDS011;65174;48.138;21.002;2023-08-31T09:20:46;23.38;;;14.38;;
76125;SDS011;65174;48.138;21.002;2023-08-31T09:23:55;20.55;;;14.10;;
76125;SDS011;65174;48.138;21.002;2023-08-31T09:26:59;18.97;;;12.20;;
76125;SDS011;65174;48.138;21.002;2023-08-31T09:30:01;18.90;;;12.35;;
76125;SDS011;65174;48.138;21.002;2023-08-31T09:33:05;16.40;;;11.88;;
76125;SDS011;65174;48.138;21.002;2023-08-31T09:36:08;15.73;;;10.70;;
76125;SDS011;65174;48.138;21.002;2023-08-31T09:39:10;17.95;;;10.50;;
76125;SDS011;65174;48.138;21.002;2023-08-31T09:42:14;18.10;;;11.70;;
76125;SDS011;65174;48.138;21.002;2023-08-31T09:45:17;17.73;;;11.30;;
76125;SDS011;65174;48.138;21.002;2023-08-31T09:48:45;16.52;;;11.30;;
76125;SDS011;65174;48.138;21.002;2023-08-31T09:51:48;17.67;;;12.13;;
76125;SDS011;65174;48.138;21.002;2023-08-31T09:54:51;18.38;;;10.95;;
76125;SDS011;65174;48.138;21.002;2023-08-31T09:57:59;15.87;;;10.83;;
76125;SDS011;65174;48.138;21.002;2023-08-31T10:01:16;16.55;;;10.88;;
76125;SDS011;65174;48.138;21.002;2023-08-31T10:04:30;19.33;;;11.35;;
76125;SDS011;65174;48.138;21.002;2023-08-31T10:07:34;19.20;;;11.98;;
76125;SDS011;65174;48.138;21.002;2023-08-31T10:10:37;17.30;;;12.15;;
76125;SDS011;65174;48.138;21.002;2023-08-31T10:13:40;19.50;;;12.50;;
76125;SDS011;65174;48.138;21.002;2023-08-31T10:16:43;18.00;;;12.10;;
76125;SDS011;65174;48.138;21.002;2023-08-31T10:23:47;19.25;;;12.85;;
76125;SDS011;65174;48.138;21.002;2023-08-31T10:26:50;19.58;;;12.80;;
76125;SDS011;65174;48.138;21.002;2023-08-31T10:29:52;17.93;;;12.50;;
76125;SDS011;65174;48.138;21.002;2023-08-31T10:36:18;18.05;;;12.05;;
76125;SDS011;65174;48.138;21.002;2023-08-31T10:39:21;18.05;;;11.35;;
76125;SDS011;65174;48.138;21.002;2023-08-31T10:42:23;18.27;;;11.43;;
76125;SDS011;65174;48.138;21.002;2023-08-31T10:45:25;18.80;;;11.87;;
76125;SDS011;65174;48.138;21.002;2023-08-31T10:48:27;16.88;;;11.07;;
76125;SDS011;65174;48.138;21.002;2023-08-31T10:51:30;15.57;;;11.68;;
76125;SDS011;65174;48.138;21.002;2023-08-31T10:54:33;15.75;;;10.95;;
76125;SDS011;65174;48.138;21.002;2023-08-31T10:57:36;14.30;;;9.88;;
76125;SDS011;65174;48.138;21.002;2023-08-31T11:00:51;13.87;;;10.37;;
76125;SDS011;65174;48.138;21.002;2023-08-31T11:03:57;13.95;;;10.00;;
76125;SDS011;65174;48.138;21.002;2023-08-31T11:07:14;17.58;;;10.25;;
76125;SDS011;65174;48.138;21.002;2023-08-31T11:10:18;14.25;;;10.50;;
76125;SDS011;65174;48.138;21.002;2023-08-31T11:13:26;15.23;;;10.63;;
76125;SDS011;65174;48.138;21.002;2023-08-31T11:16:29;18.37;;;10.67;;
76125;SDS011;65174;48.138;21.002;2023-08-31T11:19:32;14.50;;;11.05;;
76125;SDS011;65174;48.138;21.002;2023-08-31T11:22:39;14.55;;;9.23;;
76125;SDS011;65174;48.138;21.002;2023-08-31T11:25:47;13.60;;;9.77;;
76125;SDS011;65174;48.138;21.002;2023-08-31T11:28:49;13.38;;;9.13;;
76125;SDS011;65174;48.138;21.002;2023-08-31T11:31:51;12.97;;;8.97;;
76125;SDS011;65174;48.138;21.002;2023-08-31T11:34:53;10.63;;;7.93;;
76125;SDS011;65174;48.138;21.002;2023-08-31T11:37:55;11.48;;;8.18;;
76125;SDS011;65174;48.138;21.002;2023-08-31T11:40:58;10.32;;;7.38;;
76125;SDS011;65174;48.138;21.002;2023-08-31T11:44:00;10.73;;;7.90;;
76125;SDS011;65174;48.138;21.002;2023-08-31T11:47:03;13.53;;;7.87;;
76125;SDS011;65174;48.138;21.002;2023-08-31T11:50:05;10.43;;;7.30;;
76125;SDS011;65174;48.138;21.002;2023-08-31T11:53:09;12.55;;;7.20;;
76125;SDS011;65174;48.138;21.002;2023-08-31T11:56:11;8.98;;;6.45;;
76125;SDS011;65174;48.138;21.002;2023-08-31T11:59:17;8.73;;;7.18;;
76125;SDS011;65174;48.138;21.002;2023-08-31T12:02:20;8.53;;;6.30;;
76125;SDS011;65174;48.138;21.002;2023-08-31T12:05:44;9.95;;;7.35;;
76125;SDS011;65174;48.138;21.002;2023-08-31T12:08:55;10.00;;;7.57;;
76125;SDS011;65174;48.138;21.002;2023-08-31T12:12:07;8.65;;;7.15;;
76125;SDS011;65174;48.138;21.002;2023-08-31T12:15:16;8.90;;;7.07;;
76125;SDS011;65174;48.138;21.002;2023-08-31T12:18:29;10.77;;;6.97;;
76125;SDS011;65174;48.138;21.002;2023-08-31T12:21:39;11.43;;;8.07;;
76125;SDS011;65174;48.138;21.002;2023-08-31T12:24:50;9.63;;;7.10;;
76125;SDS011;65174;48.138;21.002;2023-08-31T12:27:52;11.20;;;7.47;;
76125;SDS011;65174;48.138;21.002;2023-08-31T12:30:54;12.15;;;8.57;;
76125;SDS011;65174;48.138;21.002;2023-08-31T12:59:11;10.13;;;7.73;;
76125;SDS011;65174;48.138;21.002;2023-08-31T13:02:13;9.73;;;6.97;;
76125;SDS011;65174;48.138;21.002;2023-08-31T13:05:15;10.80;;;6.45;;
76125;SDS011;65174;48.138;21.002;2023-08-31T13:08:17;9.05;;;6.90;;
76125;SDS011;65174;48.138;21.002;2023-08-31T13:11:19;12.60;;;7.80;;
76125;SDS011;65174;48.138;21.002;2023-08-31T13:14:25;9.37;;;7.20;;
76125;SDS011;65174;48.138;21.002;2023-08-31T13:17:27;9.57;;;7.13;;
76125;SDS011;65174;48.138;21.002;2023-08-31T13:20:29;15.98;;;8.27;;
76125;SDS011;65174;48.138;21.002;2023-08-31T13:23:32;10.77;;;7.97;;
76125;SDS011;65174;48.138;21.002;2023-08-31T13:30:10;8.67;;;6.60;;
76125;SDS011;65174;48.138;21.002;2023-08-31T13:33:14;10.57;;;7.25;;
76125;SDS011;65174;48.138;21.002;2023-08-31T13:36:16;8.38;;;6.82;;
76125;SDS011;65174;48.138;21.002;2023-08-31T13:39:18;11.05;;;7.32;;
76125;SDS011;65174;48.138;21.002;2023-08-31T13:42:20;10.30;;;8.02;;
76125;SDS011;65174;48.138;21.002;2023-08-31T13:45:22;10.60;;;7.57;;
76125;SDS011;65174;48.138;21.002;2023-08-31T13:48:24;10.68;;;8.07;;
76125;SDS011;65174;48.138;21.002;2023-08-31T13:51:26;9.93;;;7.85;;
76125;SDS011;65174;48.138;21.002;2023-08-31T13:54:28;11.52;;;7.88;;
76125;SDS011;65174;48.138;21.002;2023-08-31T13:57:30;10.10;;;7.65;;
76125;SDS011;65174;48.138;21.002;2023-08-31T14:00:33;11.40;;;7.50;;
76125;SDS011;65174;48.138;21.002;2023-08-31T14:03:36;9.75;;;7.32;;
76125;SDS011;65174;48.138;21.002;2023-08-31T14:06:38;9.68;;;7.30;;
76125;SDS011;65174;48.138;21.002;2023-08-31T14:09:40;9.82;;;8.05;;
76125;SDS011;65174;48.138;21.002;2023-08-31T14:12:42;10.60;;;7.35;;
76125;SDS011;65174;48.138;21.002;2023-08-31T14:15:44;9.63;;;7.10;;
76125;SDS011;65174;48.138;21.002;2023-08-31T14:18:48;12.98;;;7.13;;
76125;SDS011;65174;48.138;21.002;2023-08-31T14:21:50;7.95;;;6.53;;
76125;SDS011;65174;48.138;21.002;2023-08-31T14:24:54;9.10;;;7.25;;
76125;SDS011;65174;48.138;21.002;2023-08-31T14:27:56;9.68;;;7.47;;
76125;SDS011;65174;48.138;21.002;2023-08-31T14:31:03;11.30;;;7.50;;
76125;SDS011;65174;48.138;21.002;2023-08-31T14:34:05;6.18;;;3.80;;
76125;SDS011;65174;48.138;21.002;2023-08-31T14:37:07;10.30;;;7.22;;
76125;SDS011;65174;48.138;21.002;2023-08-31T14:40:09;12.80;;;8.57;;
76125;SDS011;65174;48.138;21.002;2023-08-31T14:43:12;13.23;;;7.35;;
76125;SDS011;65174;48.138;21.002;2023-08-31T14:49:31;7.60;;;5.30;;
76125;SDS011;65174;48.138;21.002;2023-08-31T14:52:33;5.40;;;3.38;;
76125;SDS011;65174;48.138;21.002;2023-08-31T14:55:35;4.43;;;2.00;;
76125;SDS011;65174;48.138;21.002;2023-08-31T14:58:37;2.30;;;1.50;;
76125;SDS011;65174;48.138;21.002;2023-08-31T15:01:39;1.63;;;1.20;;
76125;SDS011;65174;48.138;21.002;2023-08-31T15:04:41;1.40;;;1.05;;
76125;SDS011;65174;48.138;21.002;2023-08-31T15:07:42;1.00;;;0.90;;
76125;SDS011;65174;48.138;21.002;2023-08-31T15:10:44;3.33;;;1.30;;
76125;SDS011;65174;48.138;21.002;2023-08-31T15:13:46;2.50;;;1.08;;
76125;SDS011;65174;48.138;21.002;2023-08-31T15:16:48;2.40;;;1.10;;
76125;SDS011;65174;48.138;21.002;2023-08-31T15:19:53;1.65;;;0.80;;
76125;SDS011;65174;48.138;21.002;2023-08-31T15:22:55;1.13;;;0.75;;
76125;SDS011;65174;48.138;21.002;2023-08-31T15:26:01;1.52;;;1.05;;
76125;SDS011;65174;48.138;21.002;2023-08-31T15:29:08;4.63;;;1.42;;
76125;SDS011;65174;48.138;21.002;2023-08-31T15:32:10;2.43;;;1.07;;
76125;SDS011;65174;48.138;21.002;2023-08-31T15:35:13;2.35;;;1.20;;
76125;SDS011;65174;48.138;21.002;2023-08-31T15:38:15;2.05;;;1.17;;
76125;SDS011;65174;48.138;21.002;2023-08-31T15:41:19;1.80;;;1.00;;
76125;SDS011;65174;48.138;21.002;2023-08-31T15:44:21;1.60;;;0.85;;
76125;SDS011;65174;48.138;21.002;2023-08-31T15:47:24;3.10;;;1.10;;
76125;SDS011;65174;48.138;21.002;2023-08-31T15:50:26;2.05;;;1.00;;
76125;SDS011;65174;48.138;21.002;2023-08-31T15:53:28;2.65;;;1.40;;
76125;SDS011;65174;48.138;21.002;2023-08-31T15:56:30;4.38;;;1.70;;
76125;SDS011;65174;48.138;21.002;2023-08-31T15:59:34;2.45;;;1.40;;
76125;SDS011;65174;48.138;21.002;2023-08-31T16:02:36;3.03;;;1.50;;
76125;SDS011;65174;48.138;21.002;2023-08-31T16:05:38;5.72;;;1.60;;
76125;SDS011;65174;48.138;21.002;2023-08-31T16:08:40;2.65;;;1.58;;
76125;SDS011;65174;48.138;21.002;2023-08-31T16:11:42;3.13;;;1.83;;
76125;SDS011;65174;48.138;21.002;2023-08-31T16:14:47;4.93;;;1.88;;
76125;SDS011;65174;48.138;21.002;2023-08-31T16:17:53;4.30;;;1.83;;
76125;SDS011;65174;48.138;21.002;2023-08-31T16:20:55;2.97;;;1.38;;
76125;SDS011;65174;48.138;21.002;2023-08-31T16:24:00;3.88;;;1.67;;
76125;SDS011;65174;48.138;21.002;2023-08-31T16:27:02;2.92;;;1.60;;
76125;SDS011;65174;48.138;21.002;2023-08-31T16:30:05;3.60;;;1.50;;
76125;SDS011;65174;48.138;21.002;2023-08-31T16:33:08;2.57;;;1.50;;
76125;SDS011;65174;48.138;21.002;2023-08-31T16:36:10;3.33;;;1.30;;
76125;SDS011;65174;48.138;21.002;2023-08-31T16:39:12;4.05;;;1.70;;
76125;SDS011;65174;48.138;21.002;2023-08-31T16:42:14;3.17;;;1.60;;
76125;SDS011;65174;48.138;21.002;2023-08-31T16:45:16;5.75;;;1.95;;
76125;SDS011;65174;48.138;21.002;2023-08-31T16:48:18;4.07;;;1.90;;
76125;SDS011;65174;48.138;21.002;2023-08-31T16:51:20;4.35;;;2.10;;
76125;SDS011;65174;48.138;21.002;2023-08-31T16:54:23;3.72;;;1.65;;
76125;SDS011;65174;48.138;21.002;2023-08-31T16:57:27;1.98;;;1.35;;
76125;SDS011;65174;48.138;21.002;2023-08-31T17:00:30;2.90;;;1.63;;
76125;SDS011;65174;48.138;21.002;2023-08-31T17:03:32;1.93;;;1.33;;
76125;SDS011;65174;48.138;21.002;2023-08-31T17:06:34;1.77;;;1.25;;
76125;SDS011;65174;48.138;21.002;2023-08-31T17:09:36;2.65;;;1.50;;
76125;SDS011;65174;48.138;21.002;2023-08-31T17:12:38;2.83;;;1.40;;
76125;SDS011;65174;48.138;21.002;2023-08-31T17:15:41;2.08;;;1.33;;
76125;SDS011;65174;48.138;21.002;2023-08-31T17:18:43;2.40;;;1.47;;
76125;SDS011;65174;48.138;21.002;2023-08-31T17:21:45;3.25;;;2.00;;
76125;SDS011;65174;48.138;21.002;2023-08-31T17:24:47;3.63;;;2.50;;
76125;SDS011;65174;48.138;21.002;2023-08-31T17:27:49;6.15;;;3.10;;
76125;SDS011;65174;48.138;21.002;2023-08-31T17:30:50;4.18;;;3.33;;
76125;SDS011;65174;48.138;21.002;2023-08-31T17:33:53;4.77;;;2.50;;
76125;SDS011;65174;48.138;21.002;2023-08-31T17:36:55;2.97;;;2.20;;
76125;SDS011;65174;48.138;21.002;2023-08-31T17:39:57;4.35;;;2.55;;
76125;SDS011;65174;48.138;21.002;2023-08-31T17:42:59;4.07;;;2.90;;
76125;SDS011;65174;48.138;21.002;2023-08-31T17:49:28;4.63;;;2.90;;
76125;SDS011;65174;48.138;21.002;2023-08-31T17:52:29;5.53;;;3.17;;
76125;SDS011;65174;48.138;21.002;2023-08-31T17:55:32;4.32;;;2.65;;
76125;SDS011;65174;48.138;21.002;2023-08-31T17:58:34;5.20;;;3.20;;
76125;SDS011;65174;48.138;21.002;2023-08-31T18:01:36;5.82;;;3.40;;
76125;SDS011;65174;48.138;21.002;2023-08-31T18:04:38;6.23;;;3.13;;
76125;SDS011;65174;48.138;21.002;2023-08-31T18:07:40;5.75;;;3.33;;
76125;SDS011;65174;48.138;21.002;2023-08-31T18:10:42;6.32;;;3.60;;
76125;SDS011;65174;48.138;21.002;2023-08-31T18:13:44;5.70;;;3.70;;
76125;SDS011;65174;48.138;21.002;2023-08-31T18:16:46;6.45;;;4.15;;
76125;SDS011;65174;48.138;21.002;2023-08-31T18:19:48;6.47;;;4.17;;
76125;SDS011;65174;48.138;21.002;2023-08-31T18:22:53;6.32;;;4.00;;
76125;SDS011;65174;48.138;21.002;2023-08-31T18:25:55;16.20;;;4.82;;
76125;SDS011;65174;48.138;21.002;2023-08-31T18:28:57;6.20;;;3.70;;
76125;SDS011;65174;48.138;21.002;2023-08-31T18:31:59;7.15;;;4.50;;
76125;SDS011;65174;48.138;21.002;2023-08-31T18:35:02;7.07;;;4.20;;
76125;SDS011;65174;48.138;21.002;2023-08-31T18:38:04;6.13;;;4.13;;
76125;SDS011;65174;48.138;21.002;2023-08-31T18:41:06;6.75;;;4.05;;
76125;SDS011;65174;48.138;21.002;2023-08-31T18:48:19;6.00;;;3.75;;
76125;SDS011;65174;48.138;21.002;2023-08-31T18:51:21;4.83;;;2.43;;
76125;SDS011;65174;48.138;21.002;2023-08-31T18:54:23;4.38;;;2.58;;
76125;SDS011;65174;48.138;21.002;2023-08-31T18:57:25;4.60;;;1.80;;
76125;SDS011;65174;48.138;21.002;2023-08-31T19:00:27;2.17;;;1.50;;
76125;SDS011;65174;48.138;21.002;2023-08-31T19:03:29;2.47;;;1.55;;
76125;SDS011;65174;48.138;21.002;2023-08-31T19:06:31;2.67;;;1.63;;
76125;SDS011;65174;48.138;21.002;2023-08-31T19:09:34;2.80;;;1.65;;
76125;SDS011;65174;48.138;21.002;2023-08-31T19:12:37;3.47;;;2.08;;
76125;SDS011;65174;48.138;21.002;2023-08-31T19:15:39;4.47;;;2.30;;
76125;SDS011;65174;48.138;21.002;2023-08-31T19:18:41;4.93;;;2.30;;
76125;SDS011;65174;48.138;21.002;2023-08-31T19:21:43;3.93;;;2.20;;
76125;SDS011;65174;48.138;21.002;2023-08-31T19:24:46;3.47;;;2.40;;
76125;SDS011;65174;48.138;21.002;2023-08-31T19:27:48;4.68;;;2.17;;